Bloomfield, California
Current Conditions -  °F | °C
As of 8:15 AM on Saturday 22 Nov 2014 (Local Time) from KO69 Reporting Station
Overcast Overcast  
Wind Chill: 63°   Ceiling: 800
Heat Index: 63°   Visibility: 1.7mi
Dew Point: 63°   Wind: 13mph
Humidity: 100%   Direction: 270°W
Pressure: 30.06"   Gusts: NA
Location:  38.2181°N, 122.773°W
Report Text: KO69 221615Z AUTO 27011KT 1 3/4SM OVC008 17/17 A3006 RMK AO1
Loading
Personal Weather Stations






























Interactive Weather Map New forecast layout! Learn more

10-Day Weather Forecast

Advertisements
Track Severe Weather on mobile